createdAt,value
2017-12-25T00:00:54.398Z,6.40
2017-12-25T00:03:21.541Z,6.20
2017-12-25T00:05:47.938Z,6.20
2017-12-25T00:08:14.313Z,6.10
2017-12-25T00:10:41.452Z,6.20
2017-12-25T00:13:07.848Z,6.20
2017-12-25T00:15:34.226Z,6.30
2017-12-25T00:18:02.091Z,6.30
2017-12-25T00:20:29.218Z,6.40
2017-12-25T00:22:55.718Z,6.40
2017-12-25T00:25:22.101Z,6.40
2017-12-25T00:27:49.962Z,6.40
2017-12-25T00:30:17.094Z,6.40
2017-12-25T00:32:43.561Z,6.40
2017-12-25T00:35:10.692Z,6.50
2017-12-25T00:37:37.074Z,6.40
2017-12-25T00:40:03.474Z,6.40
2017-12-25T00:42:30.596Z,6.40
2017-12-25T00:44:57.058Z,6.40
2017-12-25T00:47:24.176Z,6.50
2017-12-25T00:49:50.574Z,6.40
2017-12-25T00:52:16.960Z,6.50
2017-12-25T00:54:44.138Z,6.50
2017-12-25T00:57:10.546Z,6.50
2017-12-25T00:59:38.410Z,6.40
2017-12-25T01:02:06.284Z,6.30
2017-12-25T01:04:33.413Z,6.40
2017-12-25T01:06:59.790Z,6.40
2017-12-25T01:09:26.178Z,6.30
2017-12-25T01:11:53.335Z,6.40
2017-12-25T01:14:19.713Z,6.40
2017-12-25T01:16:46.079Z,6.50
2017-12-25T01:19:12.430Z,6.50
2017-12-25T01:21:40.295Z,6.50
2017-12-25T01:24:08.201Z,6.40
2017-12-25T01:26:34.576Z,6.40
2017-12-25T01:29:00.984Z,6.40
2017-12-25T01:31:27.380Z,6.40
2017-12-25T01:33:54.522Z,6.40
2017-12-25T01:36:21.639Z,6.40
2017-12-25T01:38:48.019Z,6.40
2017-12-25T01:41:14.398Z,6.50
2017-12-25T01:43:40.786Z,6.50
2017-12-25T01:46:07.286Z,6.40
2017-12-25T01:48:33.654Z,6.50
2017-12-25T01:51:00.111Z,6.50
2017-12-25T01:53:26.561Z,6.40
2017-12-25T01:55:53.002Z,6.40
2017-12-25T01:58:31.182Z,6.40
2017-12-25T02:04:07.003Z,6.30
2017-12-25T02:06:45.718Z,6.30
2017-12-25T02:09:12.158Z,6.30
2017-12-25T02:11:38.525Z,6.40
2017-12-25T02:14:04.916Z,6.40
2017-12-25T02:16:31.310Z,6.50
2017-12-25T02:18:57.688Z,6.50
2017-12-25T02:21:24.083Z,6.50
2017-12-25T02:23:50.489Z,6.30
2017-12-25T02:26:16.914Z,6.50
2017-12-25T02:28:43.323Z,6.50
2017-12-25T02:31:10.450Z,6.40
2017-12-25T02:33:38.336Z,6.50
2017-12-25T02:36:04.711Z,6.50
2017-12-25T02:38:31.105Z,6.50
2017-12-25T02:40:58.233Z,6.60
2017-12-25T02:43:24.603Z,6.60
2017-12-25T02:45:50.977Z,6.60
2017-12-25T02:48:17.356Z,6.50
2017-12-25T02:50:44.474Z,6.50
2017-12-25T02:53:10.920Z,6.50
2017-12-25T02:55:37.291Z,6.50
2017-12-25T02:58:04.398Z,6.40
2017-12-25T03:00:32.267Z,6.50
2017-12-25T03:02:59.468Z,6.50
2017-12-25T03:05:25.844Z,6.50
2017-12-25T03:07:52.226Z,6.50
2017-12-25T03:10:18.610Z,6.40
2017-12-25T03:12:45.742Z,6.30
2017-12-25T03:15:12.137Z,6.30
2017-12-25T03:17:38.533Z,6.40
2017-12-25T03:20:05.637Z,6.10
2017-12-25T03:22:32.014Z,6.10
2017-12-25T03:24:59.150Z,6.00
2017-12-25T03:27:25.541Z,6.00
2017-12-25T03:29:51.918Z,6.10
2017-12-25T03:32:18.383Z,6.20
2017-12-25T03:34:44.770Z,6.20
2017-12-25T03:37:11.116Z,6.20
2017-12-25T03:39:37.914Z,6.00
2017-12-25T03:42:04.291Z,6.00
2017-12-25T03:44:31.395Z,6.10
2017-12-25T03:46:57.774Z,6.10
2017-12-25T03:49:24.143Z,6.20
2017-12-25T03:51:50.503Z,6.10
2017-12-25T03:54:16.916Z,6.20
2017-12-25T03:56:43.351Z,6.20
2017-12-25T03:59:09.752Z,6.00
2017-12-25T04:01:36.131Z,6.10
2017-12-25T04:04:02.498Z,6.10
2017-12-25T04:06:29.607Z,6.40
2017-12-25T04:08:56.081Z,6.40
2017-12-25T04:11:23.214Z,6.50
2017-12-25T04:13:50.323Z,6.60
2017-12-25T04:16:16.694Z,6.60
2017-12-25T04:18:44.573Z,6.50
2017-12-25T04:21:11.687Z,6.60
2017-12-25T04:23:38.057Z,6.50
2017-12-25T04:26:05.194Z,6.30
2017-12-25T04:28:32.341Z,6.40
2017-12-25T04:30:58.732Z,6.40
2017-12-25T04:33:25.165Z,6.50
2017-12-25T04:35:51.550Z,6.30
2017-12-25T04:38:19.423Z,6.20
2017-12-25T04:40:46.540Z,6.10
2017-12-25T04:43:12.943Z,6.10
2017-12-25T04:45:39.321Z,6.00
2017-12-25T04:48:07.214Z,6.10
2017-12-25T04:50:34.331Z,6.00
2017-12-25T04:53:00.703Z,6.00
2017-12-25T04:55:27.082Z,5.80
2017-12-25T04:57:53.488Z,5.60
2017-12-25T05:00:20.075Z,5.60
2017-12-25T05:02:46.486Z,5.50
2017-12-25T05:05:12.896Z,5.40
2017-12-25T05:07:39.270Z,5.30
2017-12-25T05:10:06.455Z,5.10
2017-12-25T05:12:32.834Z,5.10
2017-12-25T05:14:59.983Z,4.70
2017-12-25T05:17:26.361Z,4.70
2017-12-25T05:19:52.720Z,4.60
2017-12-25T05:22:19.095Z,4.60
2017-12-25T05:24:45.528Z,4.50
2017-12-25T05:27:11.903Z,4.50
2017-12-25T05:29:38.289Z,4.50
2017-12-25T05:32:04.763Z,4.60
2017-12-25T05:34:31.204Z,4.50
2017-12-25T05:36:57.599Z,4.20
2017-12-25T05:39:24.014Z,4.10
2017-12-25T05:41:50.387Z,4.00
2017-12-25T05:44:16.775Z,4.10
2017-12-25T05:46:43.174Z,4.10
2017-12-25T05:49:09.550Z,4.20
2017-12-25T05:51:35.938Z,4.00
2017-12-25T05:54:02.332Z,4.00
2017-12-25T05:56:29.459Z,3.40
2017-12-25T05:58:55.843Z,3.40
2017-12-25T06:01:22.219Z,3.20
2017-12-25T06:03:48.801Z,3.10
2017-12-25T06:06:15.190Z,3.00
2017-12-25T06:08:41.565Z,3.00
2017-12-25T06:11:07.942Z,2.80
2017-12-25T06:13:34.414Z,2.60
2017-12-25T06:16:00.814Z,2.60
2017-12-25T06:18:27.188Z,2.60
2017-12-25T06:20:53.583Z,2.50
2017-12-25T06:23:20.729Z,2.30
2017-12-25T06:25:47.106Z,2.30
2017-12-25T06:28:13.504Z,2.30
2017-12-25T06:30:40.629Z,2.30
2017-12-25T06:33:07.015Z,2.30
2017-12-25T06:35:33.387Z,2.20
2017-12-25T06:37:59.852Z,2.20
2017-12-25T06:40:27.020Z,2.10
2017-12-25T06:42:53.392Z,2.10
2017-12-25T06:45:19.826Z,2.10
2017-12-25T06:47:46.247Z,2.10
2017-12-25T06:50:12.623Z,2.20
2017-12-25T06:52:38.982Z,2.10
2017-12-25T06:55:06.121Z,2.20
2017-12-25T06:57:33.249Z,1.90
2017-12-25T06:59:59.638Z,1.90
2017-12-25T07:02:26.063Z,1.70
2017-12-25T07:04:52.458Z,1.60
2017-12-25T07:07:19.627Z,1.60
2017-12-25T07:09:46.115Z,1.60
2017-12-25T07:12:12.500Z,1.70
2017-12-25T07:14:39.591Z,1.80
2017-12-25T07:17:05.971Z,1.70
2017-12-25T07:19:32.351Z,1.80
2017-12-25T07:21:58.729Z,2.10
2017-12-25T07:24:25.863Z,2.20
2017-12-25T07:26:52.983Z,2.20
2017-12-25T07:29:19.374Z,2.20
2017-12-25T07:31:45.756Z,2.10
2017-12-25T07:34:12.154Z,2.10
2017-12-25T07:36:38.519Z,2.30
2017-12-25T07:39:04.992Z,2.20
2017-12-25T07:41:31.372Z,2.20
2017-12-25T07:43:57.763Z,2.40
2017-12-25T07:46:24.157Z,2.50
2017-12-25T07:48:50.606Z,2.60
2017-12-25T07:51:17.778Z,2.40
2017-12-25T07:53:44.203Z,2.40
2017-12-25T07:56:10.584Z,2.40
2017-12-25T07:58:36.972Z,2.40
2017-12-25T08:01:03.367Z,2.50
2017-12-25T08:03:29.756Z,2.50
2017-12-25T08:05:56.186Z,2.70
2017-12-25T08:08:22.616Z,2.60
2017-12-25T08:10:49.030Z,2.30
2017-12-25T08:13:15.415Z,2.30
2017-12-25T08:15:41.843Z,2.60
2017-12-25T08:18:08.292Z,2.70
2017-12-25T08:20:34.665Z,2.60
2017-12-25T08:23:01.077Z,2.40
2017-12-25T08:25:28.204Z,2.60
2017-12-25T08:27:54.587Z,2.60
2017-12-25T08:30:20.974Z,2.60
2017-12-25T08:32:47.387Z,2.60
2017-12-25T08:35:13.778Z,2.80
2017-12-25T08:37:40.184Z,2.70
2017-12-25T08:40:07.322Z,2.90
2017-12-25T08:42:33.716Z,2.80
2017-12-25T08:45:00.159Z,2.90
2017-12-25T08:47:26.574Z,3.10
2017-12-25T08:49:52.959Z,3.20
2017-12-25T08:52:20.112Z,3.20
2017-12-25T08:54:47.246Z,3.20
2017-12-25T08:57:13.622Z,3.10
2017-12-25T08:59:40.036Z,3.10
2017-12-25T09:02:07.147Z,3.10
2017-12-25T09:04:33.571Z,3.00
2017-12-25T09:07:00.027Z,3.10
2017-12-25T09:09:27.240Z,3.00
2017-12-25T09:11:53.642Z,3.00
2017-12-25T09:14:20.028Z,3.00
2017-12-25T09:16:47.959Z,3.00
2017-12-25T09:19:14.427Z,3.00
2017-12-25T09:21:40.913Z,3.20
2017-12-25T09:24:07.303Z,3.20
2017-12-25T09:26:35.171Z,3.60
2017-12-25T09:29:01.569Z,3.50
2017-12-25T09:31:27.959Z,3.60
2017-12-25T09:33:55.089Z,3.90
2017-12-25T09:36:21.453Z,3.90
2017-12-25T09:38:47.824Z,4.00
2017-12-25T09:41:14.216Z,4.00
2017-12-25T09:43:40.616Z,4.20
2017-12-25T09:46:07.755Z,4.20
2017-12-25T09:48:34.134Z,4.20
2017-12-25T09:51:00.503Z,4.20
2017-12-25T09:53:26.935Z,4.20
2017-12-25T09:55:53.372Z,4.00
2017-12-25T09:58:19.758Z,4.10
2017-12-25T10:00:46.151Z,4.10
2017-12-25T10:03:12.545Z,4.10
2017-12-25T10:05:38.928Z,4.00
2017-12-25T10:08:05.307Z,3.80
2017-12-25T10:10:31.678Z,3.90
2017-12-25T10:12:58.088Z,3.90
2017-12-25T10:15:24.467Z,3.80
2017-12-25T10:17:51.604Z,3.80
2017-12-25T10:20:18.733Z,3.90
2017-12-25T10:22:45.325Z,3.90
2017-12-25T10:25:11.710Z,4.00
2017-12-25T10:27:38.098Z,4.00
2017-12-25T10:30:04.509Z,4.10
2017-12-25T10:32:30.922Z,4.20
2017-12-25T10:34:58.059Z,4.30
2017-12-25T10:37:24.446Z,4.30
2017-12-25T10:39:50.852Z,4.50
2017-12-25T10:42:17.244Z,4.60
2017-12-25T10:44:43.737Z,4.80
2017-12-25T10:47:10.113Z,4.80
2017-12-25T10:49:37.982Z,4.90
2017-12-25T10:52:04.367Z,5.00
2017-12-25T10:54:30.751Z,5.10
2017-12-25T10:56:57.169Z,5.10
2017-12-25T10:59:25.080Z,5.40
2017-12-25T11:01:51.467Z,5.40
2017-12-25T11:04:17.871Z,5.60
2017-12-25T11:06:44.280Z,5.70
2017-12-25T11:09:10.716Z,5.90
2017-12-25T11:11:37.828Z,6.00
2017-12-25T11:14:05.674Z,6.20
2017-12-25T11:16:32.062Z,6.20
2017-12-25T11:18:59.208Z,6.40
2017-12-25T11:21:25.597Z,6.30
2017-12-25T11:23:51.987Z,6.60
2017-12-25T11:26:18.364Z,6.80
2017-12-25T11:28:45.517Z,6.90
2017-12-25T11:31:13.383Z,7.00
2017-12-25T11:33:39.744Z,7.10
2017-12-25T11:36:07.032Z,7.30
2017-12-25T11:38:33.494Z,7.30
2017-12-25T11:40:59.870Z,7.40
2017-12-25T11:43:26.275Z,7.50
2017-12-25T11:45:53.456Z,7.70
2017-12-25T11:48:19.915Z,7.70
2017-12-25T11:50:46.397Z,7.80
2017-12-25T11:53:12.829Z,7.90
2017-12-25T11:55:39.978Z,8.10
2017-12-25T11:58:07.847Z,8.20
2017-12-25T12:00:35.147Z,8.20
2017-12-25T12:03:01.535Z,8.30
2017-12-25T12:05:28.676Z,8.40
2017-12-25T12:07:55.792Z,8.40
2017-12-25T12:10:22.162Z,8.40
2017-12-25T12:12:49.275Z,8.50
2017-12-25T12:15:15.652Z,8.50
2017-12-25T12:17:42.778Z,8.60
2017-12-25T12:20:10.640Z,8.60
2017-12-25T12:22:37.020Z,8.60
2017-12-25T12:25:03.391Z,8.70
2017-12-25T12:27:29.768Z,8.90
2017-12-25T12:29:56.898Z,9.10
2017-12-25T12:32:23.272Z,9.10
2017-12-25T12:34:49.666Z,9.00
2017-12-25T12:37:17.555Z,9.00
2017-12-25T12:39:44.105Z,9.00
2017-12-25T12:42:10.470Z,9.10
2017-12-25T12:44:37.618Z,9.30
2017-12-25T12:47:03.966Z,9.30
2017-12-25T12:49:31.133Z,9.30
2017-12-25T12:51:58.264Z,9.30
2017-12-25T12:54:24.659Z,9.30
2017-12-25T12:56:51.050Z,9.40
2017-12-25T12:59:18.193Z,9.50
2017-12-25T13:01:44.580Z,9.50
2017-12-25T13:04:10.970Z,9.50
2017-12-25T13:06:38.116Z,9.60
2017-12-25T13:09:05.239Z,9.60
2017-12-25T13:11:31.690Z,9.60
2017-12-25T13:13:58.077Z,9.80
2017-12-25T13:16:24.478Z,9.70
2017-12-25T13:18:50.890Z,9.70
2017-12-25T13:21:18.010Z,9.70
2017-12-25T13:23:44.418Z,9.70
2017-12-25T13:26:10.797Z,9.80
2017-12-25T13:28:37.180Z,9.80
2017-12-25T13:31:03.555Z,9.70
2017-12-25T13:33:29.961Z,9.70
2017-12-25T13:35:56.355Z,9.70
2017-12-25T13:38:22.745Z,9.60
2017-12-25T13:40:50.623Z,9.60
2017-12-25T13:43:17.758Z,9.70
2017-12-25T13:45:44.208Z,9.60
2017-12-25T13:48:10.587Z,9.60
2017-12-25T13:50:37.018Z,9.60
2017-12-25T13:53:03.362Z,9.60
2017-12-25T13:55:29.773Z,9.70
2017-12-25T13:57:56.180Z,9.80
2017-12-25T14:00:23.310Z,9.80
2017-12-25T14:02:49.672Z,9.80
2017-12-25T14:05:16.794Z,9.90
2017-12-25T14:07:43.164Z,9.90
2017-12-25T14:10:09.540Z,9.80
2017-12-25T14:12:36.676Z,9.40
2017-12-25T14:15:03.097Z,9.40
2017-12-25T14:17:29.510Z,9.40
2017-12-25T14:19:55.912Z,9.40
2017-12-25T14:22:36.115Z,9.50
2017-12-25T14:25:02.503Z,9.40
2017-12-25T14:27:41.963Z,9.30
2017-12-25T14:30:08.357Z,9.20
2017-12-25T14:32:34.730Z,9.20
2017-12-25T14:35:01.193Z,8.80
2017-12-25T14:37:27.564Z,8.50
2017-12-25T14:39:53.955Z,8.30
2017-12-25T14:42:20.339Z,8.40
2017-12-25T14:44:47.477Z,8.20
2017-12-25T14:47:13.856Z,8.20
2017-12-25T14:49:40.265Z,8.20
2017-12-25T14:52:06.652Z,8.10
2017-12-25T14:54:33.126Z,7.90
2017-12-25T14:57:00.317Z,7.70
2017-12-25T14:59:26.720Z,7.70
2017-12-25T15:01:53.150Z,7.50
2017-12-25T15:04:19.531Z,7.20
2017-12-25T15:06:45.944Z,7.20
2017-12-25T15:09:12.405Z,6.80
2017-12-25T15:11:38.787Z,6.80
2017-12-25T15:14:05.153Z,6.90
2017-12-25T15:16:31.531Z,6.70
2017-12-25T15:18:58.684Z,6.40
2017-12-25T15:21:25.088Z,6.30
2017-12-25T15:23:52.959Z,6.30
2017-12-25T15:26:20.099Z,6.30
2017-12-25T15:28:47.255Z,6.30
2017-12-25T15:31:13.645Z,6.20
2017-12-25T15:33:40.051Z,6.30
2017-12-25T15:36:07.187Z,6.10
2017-12-25T15:38:34.386Z,6.10
2017-12-25T15:41:01.515Z,6.00
2017-12-25T15:43:27.934Z,6.00
2017-12-25T15:45:55.052Z,5.60
2017-12-25T15:48:22.909Z,5.10
2017-12-25T15:50:50.785Z,4.90
2017-12-25T15:53:17.174Z,4.90
2017-12-25T15:55:43.606Z,4.80
2017-12-25T15:58:10.700Z,4.40
2017-12-25T16:00:37.132Z,4.40
2017-12-25T16:03:03.556Z,4.40
2017-12-25T16:05:29.951Z,4.40
2017-12-25T16:07:56.408Z,4.30
2017-12-25T16:10:22.813Z,4.30
2017-12-25T16:12:49.249Z,4.30
2017-12-25T16:15:15.630Z,4.10
2017-12-25T16:17:42.020Z,4.10
2017-12-25T16:20:08.420Z,4.10
2017-12-25T16:22:35.535Z,3.90
2017-12-25T16:25:04.031Z,3.70
2017-12-25T16:27:31.175Z,3.60
2017-12-25T16:29:58.324Z,3.60
2017-12-25T16:32:25.492Z,3.50
2017-12-25T16:34:51.919Z,3.60
2017-12-25T16:37:19.056Z,3.40
2017-12-25T16:39:46.279Z,3.30
2017-12-25T16:42:12.729Z,3.20
2017-12-25T16:44:39.858Z,3.00
2017-12-25T16:47:06.250Z,3.00
2017-12-25T16:49:32.631Z,3.10
2017-12-25T16:51:59.036Z,2.90
2017-12-25T16:54:25.440Z,2.90
2017-12-25T16:56:52.563Z,2.70
2017-12-25T16:59:18.935Z,2.70
2017-12-25T17:01:45.320Z,2.70
2017-12-25T17:04:12.475Z,2.60
2017-12-25T17:06:39.626Z,2.60
2017-12-25T17:09:06.019Z,2.60
2017-12-25T17:11:32.523Z,2.50
2017-12-25T17:13:58.977Z,2.50
2017-12-25T17:16:25.380Z,2.50
2017-12-25T17:18:51.817Z,2.30
2017-12-25T17:21:18.242Z,2.30
2017-12-25T17:23:45.442Z,2.20
2017-12-25T17:26:11.880Z,2.20
2017-12-25T17:28:38.272Z,2.20
2017-12-25T17:31:04.685Z,2.20
2017-12-25T17:33:31.832Z,2.10
2017-12-25T17:35:59.016Z,2.10
2017-12-25T17:38:25.402Z,2.10
2017-12-25T17:40:51.867Z,2.00
2017-12-25T17:43:18.244Z,2.00
2017-12-25T17:45:44.624Z,1.90
2017-12-25T17:48:11.752Z,2.00
2017-12-25T17:50:38.144Z,1.90
2017-12-25T17:53:04.581Z,1.80
2017-12-25T17:55:31.052Z,1.70
2017-12-25T17:57:57.535Z,1.70
2017-12-25T18:00:23.967Z,1.60
2017-12-25T18:02:50.385Z,1.60
2017-12-25T18:05:16.834Z,1.70
2017-12-25T18:07:43.245Z,1.70
2017-12-25T18:10:09.662Z,1.80
2017-12-25T18:12:36.822Z,1.80
2017-12-25T18:15:03.525Z,1.80
2017-12-25T18:17:30.103Z,1.60
2017-12-25T18:19:56.530Z,1.50
2017-12-25T18:22:22.967Z,1.50
2017-12-25T18:24:49.402Z,1.40
2017-12-25T18:27:16.585Z,1.20
2017-12-25T18:29:43.773Z,1.30
2017-12-25T18:32:10.260Z,1.30
2017-12-25T18:34:36.691Z,1.20
2017-12-25T18:37:03.143Z,1.20
2017-12-25T18:39:30.111Z,1.20
2017-12-25T18:41:56.533Z,1.30
2017-12-25T18:44:23.145Z,1.30
2017-12-25T18:46:50.332Z,1.30
2017-12-25T18:49:16.722Z,1.10
2017-12-25T18:51:43.130Z,1.00
2017-12-25T18:54:09.555Z,1.00
2017-12-25T18:56:35.944Z,1.20
2017-12-25T18:59:02.375Z,1.20
2017-12-25T19:01:28.779Z,1.10
2017-12-25T19:03:55.206Z,0.90
2017-12-25T19:06:21.612Z,0.80
2017-12-25T19:08:48.769Z,0.80
2017-12-25T19:11:15.161Z,0.80
2017-12-25T19:13:41.518Z,0.80
2017-12-25T19:16:08.723Z,0.80
2017-12-25T19:18:35.125Z,0.80
2017-12-25T19:21:01.569Z,0.80
2017-12-25T19:23:28.015Z,0.80
2017-12-25T19:25:54.468Z,0.80
2017-12-25T19:28:22.056Z,0.60
2017-12-25T19:30:49.184Z,0.60
2017-12-25T19:33:15.635Z,0.60
2017-12-25T19:35:43.536Z,0.60
2017-12-25T19:38:09.961Z,0.60
2017-12-25T19:40:36.357Z,0.60
2017-12-25T19:43:02.738Z,0.70
2017-12-25T19:45:29.171Z,0.80
2017-12-25T19:47:55.559Z,0.80
2017-12-25T19:50:21.955Z,0.60
2017-12-25T19:52:48.356Z,0.60
2017-12-25T19:55:14.751Z,0.60
2017-12-25T19:57:41.132Z,0.60
2017-12-25T20:00:07.582Z,0.50
2017-12-25T20:02:33.966Z,0.60
2017-12-25T20:05:01.100Z,0.40
2017-12-25T20:07:28.216Z,0.30
2017-12-25T20:09:55.579Z,0.30
2017-12-25T20:12:22.025Z,0.20
2017-12-25T20:14:48.427Z,0.10
2017-12-25T20:17:14.818Z,0.00
2017-12-25T20:19:42.106Z,-0.10
2017-12-25T20:22:08.534Z,-0.10
2017-12-25T20:24:34.951Z,-0.10
2017-12-25T20:27:02.228Z,-0.10
2017-12-25T20:29:28.627Z,0.00
2017-12-25T20:31:55.055Z,0.10
2017-12-25T20:34:21.456Z,0.20
2017-12-25T20:36:47.838Z,0.20
2017-12-25T20:39:14.831Z,0.20
2017-12-25T20:41:45.897Z,0.20
2017-12-25T20:44:13.039Z,0.30
2017-12-25T20:46:39.426Z,0.30
2017-12-25T20:49:05.831Z,0.50
2017-12-25T20:51:32.246Z,0.60
2017-12-25T20:53:59.386Z,0.80
2017-12-25T20:56:25.776Z,0.80
2017-12-25T20:58:52.159Z,0.80
2017-12-25T21:01:19.295Z,0.80
2017-12-25T21:03:48.248Z,0.80
2017-12-25T21:06:15.679Z,0.80
2017-12-25T21:08:42.072Z,0.90
2017-12-25T21:11:08.464Z,0.90
2017-12-25T21:13:34.841Z,0.90
2017-12-25T21:16:03.043Z,1.10
2017-12-25T21:18:30.167Z,1.10
2017-12-25T21:20:56.615Z,1.10
2017-12-25T21:23:23.752Z,0.70
2017-12-25T21:25:51.747Z,0.70
2017-12-25T21:28:18.142Z,0.70
2017-12-25T21:30:44.534Z,0.80
2017-12-25T21:33:10.945Z,0.70
2017-12-25T21:35:37.340Z,0.70
2017-12-25T21:38:04.551Z,0.50
2017-12-25T21:40:30.931Z,0.50
2017-12-25T21:42:58.094Z,0.50
2017-12-25T21:45:24.501Z,0.50
2017-12-25T21:47:51.076Z,0.50
2017-12-25T21:50:17.471Z,0.50
2017-12-25T21:52:43.854Z,0.60
2017-12-25T21:55:10.295Z,0.70
2017-12-25T21:57:37.414Z,1.10
2017-12-25T22:00:04.555Z,1.20
2017-12-25T22:02:31.704Z,1.30
2017-12-25T22:04:58.819Z,0.80
2017-12-25T22:07:25.207Z,0.80
2017-12-25T22:09:51.655Z,0.60
2017-12-25T22:12:18.063Z,0.60
2017-12-25T22:14:44.427Z,0.50
2017-12-25T22:17:10.835Z,0.50
2017-12-25T22:19:37.257Z,0.50
2017-12-25T22:22:03.725Z,0.40
2017-12-25T22:24:30.135Z,0.40
2017-12-25T22:26:56.532Z,0.40
2017-12-25T22:29:23.667Z,0.40
2017-12-25T22:31:50.090Z,0.30
2017-12-25T22:34:16.496Z,0.20
2017-12-25T22:36:42.905Z,0.20
2017-12-25T22:39:09.270Z,0.30
2017-12-25T22:41:35.665Z,0.40
2017-12-25T22:44:02.047Z,0.60
2017-12-25T22:46:28.445Z,0.70
2017-12-25T22:48:54.842Z,0.80
2017-12-25T22:51:21.961Z,0.80
2017-12-25T22:53:48.352Z,0.80
2017-12-25T22:56:14.738Z,1.00
2017-12-25T22:58:41.114Z,0.90
2017-12-25T23:01:07.467Z,0.90
2017-12-25T23:03:33.855Z,1.10
2017-12-25T23:06:00.986Z,0.90
2017-12-25T23:08:27.386Z,0.90
2017-12-25T23:10:53.896Z,1.00
2017-12-25T23:13:20.351Z,1.00
2017-12-25T23:15:46.751Z,1.00
2017-12-25T23:18:13.126Z,1.10
2017-12-25T23:20:39.492Z,1.10
2017-12-25T23:23:06.766Z,1.10
2017-12-25T23:25:33.137Z,1.10
2017-12-25T23:28:00.406Z,1.10
2017-12-25T23:30:26.787Z,1.20
2017-12-25T23:32:53.252Z,1.10
2017-12-25T23:35:19.622Z,1.00
2017-12-25T23:37:46.765Z,1.00
2017-12-25T23:40:13.199Z,1.00
2017-12-25T23:42:40.397Z,1.10
2017-12-25T23:45:06.780Z,1.10
2017-12-25T23:47:33.160Z,1.20
2017-12-25T23:49:59.537Z,1.10
2017-12-25T23:52:25.975Z,1.10
2017-12-25T23:54:52.379Z,1.10
2017-12-25T23:57:18.823Z,1.00
2017-12-25T23:59:45.199Z,1.00
